^^
Datos históricos de la estación: Murcia-Puente Tocinos
Diario Informe para Junio 7, 2019 Unidades:  Ambas    Ingés   Métrico
Diario Semanal Mensual Anual
  Máxima: Mínima: Promedio:
Temperatura: 102.2 °F /  39 °C 80.1 °F /  26.7 °C 89.1 °F /  31.7 °C
Punto de rocio: 69.4 °F /  20.8 °C 54.5 °F /  12.5 °C 63 °F /  17.2 °C
Humedad: 67% 21% 46%
Velocidad viento: 16.3mph /  26.2km/h - 6mph /  9.6km/h
Racha viento: 29.9mph /  48.1km/h - -
Viento- - SE
Presión: 29.9 in /  1012.8 hPa 29.7 in /  1005.8 hPa -
Precipitación: 0 in /  0.0 mm    
 
 
Tabla de datos para Junio 7, 2019
Hora Temperatura Punto de rocio Presión Viento Velocidad viento Racha viento Humedad Intensidad lluvia(por hora) Nubes
00:04 82.8 °F /  28.2 °C 66.6 °F /  19.2 °C 29.9in /  1012.2hPa NNE 6.2mph /  10km/h 3.6mph /  5.8km/h 58% 0in /  0.0mm
00:09 82.9 °F /  28.3 °C 65.1 °F /  18.4 °C 29.9in /  1012.2hPa Este 3.6mph /  5.8km/h 5.8mph /  9.3km/h 55% 0in /  0.0mm
00:14 83.7 °F /  28.7 °C 65.3 °F /  18.5 °C 29.9in /  1012.2hPa NE 3.6mph /  5.8km/h 4.6mph /  7.4km/h 54% 0in /  0.0mm
00:19 83.8 °F /  28.8 °C 66.6 °F /  19.2 °C 29.9in /  1012.5hPa ONO 3.1mph /  5km/h 9.2mph /  14.8km/h 56% 0in /  0.0mm
00:24 83.3 °F /  28.5 °C 66.9 °F /  19.4 °C 29.9in /  1012.5hPa NO 3.1mph /  5km/h 12.7mph /  20.4km/h 58% 0in /  0.0mm
00:29 82.9 °F /  28.3 °C 67.1 °F /  19.5 °C 29.9in /  1012.5hPa North 7.4mph /  11.9km/h 7.6mph /  12.2km/h 59% 0in /  0.0mm
00:34 82.8 °F /  28.2 °C 66.9 °F /  19.4 °C 29.9in /  1012.1hPa Oeste 7.4mph /  11.9km/h 9.2mph /  14.8km/h 59% 0in /  0.0mm
00:39 82.6 °F /  28.1 °C 66.7 °F /  19.3 °C 29.9in /  1012.1hPa NO 6.4mph /  10.3km/h 9.2mph /  14.8km/h 59% 0in /  0.0mm
00:44 82.4 °F /  28 °C 66.6 °F /  19.2 °C 29.9in /  1012.1hPa NO 6.4mph /  10.3km/h 6.9mph /  11.1km/h 59% 0in /  0.0mm
00:49 82.4 °F /  28 °C 67.1 °F /  19.5 °C 29.9in /  1012.3hPa North 5.2mph /  8.4km/h 5.8mph /  9.3km/h 60% 0in /  0.0mm
00:54 82.4 °F /  28 °C 66.6 °F /  19.2 °C 29.9in /  1012.3hPa NNE 5.2mph /  8.4km/h 5.9mph /  9.5km/h 59% 0in /  0.0mm
00:59 82.4 °F /  28 °C 66.6 °F /  19.2 °C 29.9in /  1012.3hPa North 4mph /  6.4km/h 4.6mph /  7.4km/h 59% 0in /  0.0mm
01:04 82.4 °F /  28 °C 66.6 °F /  19.2 °C 29.9in /  1012.0hPa NNO 4mph /  6.4km/h 5.8mph /  9.3km/h 59% 0in /  0.0mm
01:09 82.4 °F /  28 °C 66.6 °F /  19.2 °C 29.9in /  1012.0hPa ONO 3.6mph /  5.8km/h 6.9mph /  11.1km/h 59% 0in /  0.0mm
01:14 82.2 °F /  27.9 °C 66.9 °F /  19.4 °C 29.9in /  1012.0hPa NNE 3.6mph /  5.8km/h 3.5mph /  5.6km/h 60% 0in /  0.0mm
01:19 82.2 °F /  27.9 °C 67.5 °F /  19.7 °C 29.9in /  1012.2hPa Oeste 3.6mph /  5.8km/h 5.8mph /  9.3km/h 61% 0in /  0.0mm
01:24 82 °F /  27.8 °C 68.2 °F /  20.1 °C 29.9in /  1012.2hPa Oeste 3.6mph /  5.8km/h 10.4mph /  16.7km/h 63% 0in /  0.0mm
01:29 81.9 °F /  27.7 °C 68.9 °F /  20.5 °C 29.9in /  1012.2hPa NO 6.2mph /  10km/h 6.9mph /  11.1km/h 65% 0in /  0.0mm
01:34 81.9 °F /  27.7 °C 69.4 °F /  20.8 °C 29.9in /  1012.8hPa NE 6.2mph /  10km/h 5.8mph /  9.3km/h 66% 0in /  0.0mm
01:39 81.9 °F /  27.7 °C 69.4 °F /  20.8 °C 29.9in /  1012.8hPa NE 3.6mph /  5.8km/h 5.2mph /  8.4km/h 66% 0in /  0.0mm
01:44 81.9 °F /  27.7 °C 69.4 °F /  20.8 °C 29.9in /  1012.8hPa ENE 3.6mph /  5.8km/h 9.2mph /  14.8km/h 66% 0in /  0.0mm
01:49 81.9 °F /  27.7 °C 69.4 °F /  20.8 °C 29.9in /  1012.1hPa NE 5.9mph /  9.5km/h 8.1mph /  13km/h 66% 0in /  0.0mm
01:54 81.7 °F /  27.6 °C 69.3 °F /  20.7 °C 29.9in /  1012.1hPa ENE 5.9mph /  9.5km/h 7.6mph /  12.2km/h 66% 0in /  0.0mm
01:59 81.3 °F /  27.4 °C 68.9 °F /  20.5 °C 29.9in /  1012.1hPa ESE 5.2mph /  8.4km/h 8.1mph /  13km/h 66% 0in /  0.0mm
02:04 81.1 °F /  27.3 °C 68.7 °F /  20.4 °C 29.9in /  1011.1hPa ENE 5.2mph /  8.4km/h 7.6mph /  12.2km/h 66% 0in /  0.0mm
02:09 81.1 °F /  27.3 °C 68.7 °F /  20.4 °C 29.9in /  1011.1hPa NNE 4.7mph /  7.6km/h 6.9mph /  11.1km/h 66% 0in /  0.0mm
02:14 81.1 °F /  27.3 °C 68.7 °F /  20.4 °C 29.9in /  1011.1hPa NNE 4.7mph /  7.6km/h 9.2mph /  14.8km/h 66% 0in /  0.0mm
02:19 81.1 °F /  27.3 °C 69.1 °F /  20.6 °C 29.8in /  1010.7hPa NE 7.4mph /  11.9km/h 16.8mph /  27km/h 67% 0in /  0.0mm
02:24 81.1 °F /  27.3 °C 69.1 °F /  20.6 °C 29.8in /  1010.7hPa NE 7.4mph /  11.9km/h 16.1mph /  25.9km/h 67% 0in /  0.0mm
02:29 81.1 °F /  27.3 °C 68.7 °F /  20.4 °C 29.8in /  1010.7hPa NE 11.8mph /  19km/h 13.8mph /  22.2km/h 66% 0in /  0.0mm
02:34 81 °F /  27.2 °C 68.5 °F /  20.3 °C 29.9in /  1010.8hPa NE 11.8mph /  19km/h 15mph /  24.1km/h 66% 0in /  0.0mm
02:39 81 °F /  27.2 °C 68.2 °F /  20.1 °C 29.9in /  1010.8hPa NNE 10mph /  16.1km/h 13.8mph /  22.2km/h 65% 0in /  0.0mm
02:44 81.1 °F /  27.3 °C 68.4 °F /  20.2 °C 29.9in /  1010.8hPa NE 10mph /  16.1km/h 10.4mph /  16.7km/h 65% 0in /  0.0mm
02:49 81.1 °F /  27.3 °C 67.8 °F /  19.9 °C 29.8in /  1010.5hPa NE 8.7mph /  14km/h 9.2mph /  14.8km/h 64% 0in /  0.0mm
02:54 81.1 °F /  27.3 °C 67.8 °F /  19.9 °C 29.8in /  1010.5hPa NE 8.7mph /  14km/h 12.7mph /  20.4km/h 64% 0in /  0.0mm
02:59 81.1 °F /  27.3 °C 67.3 °F /  19.6 °C 29.8in /  1010.5hPa North 7.4mph /  11.9km/h 11.5mph /  18.5km/h 63% 0in /  0.0mm
03:04 81.1 °F /  27.3 °C 67.8 °F /  19.9 °C 29.8in /  1010.4hPa NNE 7.4mph /  11.9km/h 8.1mph /  13km/h 64% 0in /  0.0mm
03:09 81.1 °F /  27.3 °C 67.8 °F /  19.9 °C 29.8in /  1010.4hPa NNE 5.9mph /  9.5km/h 9.2mph /  14.8km/h 64% 0in /  0.0mm
03:14 81.1 °F /  27.3 °C 67.8 °F /  19.9 °C 29.8in /  1010.4hPa ONO 5.9mph /  9.5km/h 9.2mph /  14.8km/h 64% 0in /  0.0mm
03:19 81.1 °F /  27.3 °C 67.8 °F /  19.9 °C 29.8in /  1010.4hPa North 5.4mph /  8.7km/h 8.1mph /  13km/h 64% 0in /  0.0mm
03:24 81.1 °F /  27.3 °C 67.8 °F /  19.9 °C 29.8in /  1010.4hPa NO 5.4mph /  8.7km/h 6.9mph /  11.1km/h 64% 0in /  0.0mm
03:29 81.1 °F /  27.3 °C 68.4 °F /  20.2 °C 29.8in /  1010.4hPa Oeste 4.3mph /  6.9km/h 6.4mph /  10.3km/h 65% 0in /  0.0mm
03:34 81.1 °F /  27.3 °C 68.4 °F /  20.2 °C 29.9in /  1010.8hPa NE 4.3mph /  6.9km/h 3.5mph /  5.6km/h 65% 0in /  0.0mm
03:39 81.1 °F /  27.3 °C 68.4 °F /  20.2 °C 29.9in /  1010.8hPa NE 3.1mph /  5km/h 5.8mph /  9.3km/h 65% 0in /  0.0mm
03:44 81.1 °F /  27.3 °C 68.4 °F /  20.2 °C 29.9in /  1010.8hPa NNE 3.1mph /  5km/h 4.6mph /  7.4km/h 65% 0in /  0.0mm
03:49 81.1 °F /  27.3 °C 68.4 °F /  20.2 °C 29.8in /  1010.5hPa ONO 2.9mph /  4.7km/h 4mph /  6.4km/h 65% 0in /  0.0mm
03:54 81.1 °F /  27.3 °C 68.7 °F /  20.4 °C 29.8in /  1010.5hPa ONO 2.9mph /  4.7km/h 4mph /  6.4km/h 66% 0in /  0.0mm
03:59 81.1 °F /  27.3 °C 68.7 °F /  20.4 °C 29.8in /  1010.5hPa ONO 2.4mph /  3.9km/h 1.2mph /  1.9km/h 66% 0in /  0.0mm
04:04 81.1 °F /  27.3 °C 68.7 °F /  20.4 °C 29.8in /  1010.4hPa North 2.4mph /  3.9km/h 4.6mph /  7.4km/h 66% 0in /  0.0mm
04:09 81 °F /  27.2 °C 69.1 °F /  20.6 °C 29.8in /  1010.4hPa NNE 2.9mph /  4.7km/h 5.8mph /  9.3km/h 67% 0in /  0.0mm
04:14 80.8 °F /  27.1 °C 68.4 °F /  20.2 °C 29.8in /  1010.4hPa NNE 2.9mph /  4.7km/h 7.4mph /  11.9km/h 66% 0in /  0.0mm
04:19 80.6 °F /  27 °C 68.2 °F /  20.1 °C 29.8in /  1009.9hPa NNE 4.7mph /  7.6km/h 4.6mph /  7.4km/h 66% 0in /  0.0mm
04:24 80.6 °F /  27 °C 68.5 °F /  20.3 °C 29.8in /  1009.9hPa North 4.7mph /  7.6km/h 4.6mph /  7.4km/h 67% 0in /  0.0mm
04:29 80.6 °F /  27 °C 68.5 °F /  20.3 °C 29.8in /  1009.9hPa NO 2.9mph /  4.7km/h 2.4mph /  3.9km/h 67% 0in /  0.0mm
04:34 80.6 °F /  27 °C 68.5 °F /  20.3 °C 29.8in /  1010.3hPa NO 2.9mph /  4.7km/h 3.5mph /  5.6km/h 67% 0in /  0.0mm
04:39 80.6 °F /  27 °C 68.5 °F /  20.3 °C 29.8in /  1010.3hPa Oeste 2mph /  3.2km/h 4.6mph /  7.4km/h 67% 0in /  0.0mm
04:44 80.6 °F /  27 °C 68.5 °F /  20.3 °C 29.8in /  1010.3hPa NE 2mph /  3.2km/h 5.8mph /  9.3km/h 67% 0in /  0.0mm
04:49 80.8 °F /  27.1 °C 68.7 °F /  20.4 °C 29.8in /  1010.3hPa ESE 3.1mph /  5km/h 6.9mph /  11.1km/h 67% 0in /  0.0mm
04:54 80.8 °F /  27.1 °C 68.4 °F /  20.2 °C 29.8in /  1010.3hPa Este 3.1mph /  5km/h 8.1mph /  13km/h 66% 0in /  0.0mm
04:59 80.4 °F /  26.9 °C 68 °F /  20 °C 29.8in /  1010.3hPa SE 4.7mph /  7.6km/h 5.4mph /  8.7km/h 66% 0in /  0.0mm
05:04 80.4 °F /  26.9 °C 68.5 °F /  20.3 °C 29.8in /  1010.3hPa Este 4.7mph /  7.6km/h 8.1mph /  13km/h 67% 0in /  0.0mm
05:09 80.4 °F /  26.9 °C 68.5 °F /  20.3 °C 29.8in /  1010.3hPa NE 4mph /  6.4km/h 7.6mph /  12.2km/h 67% 0in /  0.0mm
05:14 80.2 °F /  26.8 °C 68.4 °F /  20.2 °C 29.8in /  1010.3hPa NE 4mph /  6.4km/h 11.5mph /  18.5km/h 67% 0in /  0.0mm
05:19 80.2 °F /  26.8 °C 67.8 °F /  19.9 °C 29.8in /  1009.4hPa ENE 6.9mph /  11.1km/h 15mph /  24.1km/h 66% 0in /  0.0mm
05:24 80.1 °F /  26.7 °C 67.6 °F /  19.8 °C 29.8in /  1009.4hPa NE 6.9mph /  11.1km/h 10.4mph /  16.7km/h 66% 0in /  0.0mm
05:29 80.1 °F /  26.7 °C 67.6 °F /  19.8 °C 29.8in /  1009.4hPa NE 8.7mph /  14km/h 11.5mph /  18.5km/h 66% 0in /  0.0mm
05:34 80.1 °F /  26.7 °C 67.6 °F /  19.8 °C 29.8in /  1010.0hPa NNE 8.7mph /  14km/h 8.1mph /  13km/h 66% 0in /  0.0mm
05:39 80.1 °F /  26.7 °C 67.3 °F /  19.6 °C 29.8in /  1010.0hPa NNO 6.2mph /  10km/h 9.2mph /  14.8km/h 65% 0in /  0.0mm
05:44 80.2 °F /  26.8 °C 66.9 °F /  19.4 °C 29.8in /  1010.0hPa OSO 6.2mph /  10km/h 9.2mph /  14.8km/h 64% 0in /  0.0mm
05:49 80.2 °F /  26.8 °C 66.6 °F /  19.2 °C 29.8in /  1010.6hPa NO 5.9mph /  9.5km/h 9.2mph /  14.8km/h 63% 0in /  0.0mm
05:54 80.8 °F /  27.1 °C 65.1 °F /  18.4 °C 29.8in /  1010.6hPa Este 5.9mph /  9.5km/h 10.4mph /  16.7km/h 59% 0in /  0.0mm
05:59 81.5 °F /  27.5 °C 65.3 °F /  18.5 °C 29.8in /  1010.6hPa Este 5.9mph /  9.5km/h 10.4mph /  16.7km/h 58% 0in /  0.0mm
06:04 81.7 °F /  27.6 °C 66 °F /  18.9 °C 29.8in /  1010.4hPa NNE 5.9mph /  9.5km/h 10.4mph /  16.7km/h 59% 0in /  0.0mm
06:09 81.3 °F /  27.4 °C 65.7 °F /  18.7 °C 29.8in /  1010.4hPa NE 6.4mph /  10.3km/h 11.5mph /  18.5km/h 59% 0in /  0.0mm
06:14 81.3 °F /  27.4 °C 65.1 °F /  18.4 °C 29.8in /  1010.4hPa NE 6.4mph /  10.3km/h 9.2mph /  14.8km/h 58% 0in /  0.0mm
06:19 81.5 °F /  27.5 °C 65.3 °F /  18.5 °C 29.8in /  1009.9hPa NE 6.2mph /  10km/h 6.9mph /  11.1km/h 58% 0in /  0.0mm
06:24 81.7 °F /  27.6 °C 64.9 °F /  18.3 °C 29.8in /  1009.9hPa North 6.2mph /  10km/h 6.9mph /  11.1km/h 57% 0in /  0.0mm
06:29 81.7 °F /  27.6 °C 64.9 °F /  18.3 °C 29.8in /  1009.9hPa Sur 4.3mph /  6.9km/h 4.6mph /  7.4km/h 57% 0in /  0.0mm
06:34 82 °F /  27.8 °C 64.2 °F /  17.9 °C 29.8in /  1009.9hPa SE 4.3mph /  6.9km/h 5.8mph /  9.3km/h 55% 0in /  0.0mm
06:39 83.5 °F /  28.6 °C 63 °F /  17.2 °C 29.8in /  1009.9hPa SE 4mph /  6.4km/h 12.7mph /  20.4km/h 50% 0in /  0.0mm
06:44 83.8 °F /  28.8 °C 64.9 °F /  18.3 °C 29.8in /  1009.9hPa North 4mph /  6.4km/h 10.4mph /  16.7km/h 53% 0in /  0.0mm
06:49 82.9 °F /  28.3 °C 65.1 °F /  18.4 °C 29.8in /  1010.5hPa NNO 5.4mph /  8.7km/h 4.6mph /  7.4km/h 55% 0in /  0.0mm
06:54 82.2 °F /  27.9 °C 65.5 °F /  18.6 °C 29.8in /  1010.5hPa North 5.4mph /  8.7km/h 5.9mph /  9.5km/h 57% 0in /  0.0mm
06:59 81.7 °F /  27.6 °C 65.5 °F /  18.6 °C 29.8in /  1010.5hPa NE 4mph /  6.4km/h 5.2mph /  8.4km/h 58% 0in /  0.0mm
07:04 81.5 °F /  27.5 °C 65.3 °F /  18.5 °C 29.8in /  1010.2hPa ENE 4mph /  6.4km/h 2.3mph /  3.7km/h 58% 0in /  0.0mm
07:09 81.3 °F /  27.4 °C 65.7 °F /  18.7 °C 29.8in /  1010.2hPa NNE 2.4mph /  3.9km/h 3.6mph /  5.8km/h 59% 0in /  0.0mm
07:14 81.1 °F /  27.3 °C 65.8 °F /  18.8 °C 29.8in /  1010.2hPa NO 2.4mph /  3.9km/h 4.6mph /  7.4km/h 60% 0in /  0.0mm
07:19 80.8 °F /  27.1 °C 66 °F /  18.9 °C 29.8in /  1010.3hPa NO 2.9mph /  4.7km/h 4.6mph /  7.4km/h 61% 0in /  0.0mm
07:24 80.4 °F /  26.9 °C 66.2 °F /  19 °C 29.8in /  1010.3hPa NO 2.9mph /  4.7km/h 4.7mph /  7.6km/h 62% 0in /  0.0mm
07:29 80.2 °F /  26.8 °C 66.6 °F /  19.2 °C 29.8in /  1010.3hPa NNE 3.1mph /  5km/h 3.5mph /  5.6km/h 63% 0in /  0.0mm
07:34 80.1 °F /  26.7 °C 66.4 °F /  19.1 °C 29.8in /  1010.4hPa North 3.1mph /  5km/h 5.8mph /  9.3km/h 63% 0in /  0.0mm
07:39 80.1 °F /  26.7 °C 66.4 °F /  19.1 °C 29.8in /  1010.4hPa North 1.8mph /  2.9km/h 2.4mph /  3.9km/h 63% 0in /  0.0mm
07:44 80.1 °F /  26.7 °C 66.4 °F /  19.1 °C 29.8in /  1010.4hPa NNE 1.8mph /  2.9km/h 4.6mph /  7.4km/h 63% 0in /  0.0mm
07:49 80.2 °F /  26.8 °C 66.6 °F /  19.2 °C 29.8in /  1010.6hPa NNE 1.8mph /  2.9km/h 2.3mph /  3.7km/h 63% 0in /  0.0mm
07:54 80.2 °F /  26.8 °C 66.6 °F /  19.2 °C 29.8in /  1010.6hPa NNE 1.8mph /  2.9km/h 2.3mph /  3.7km/h 63% 0in /  0.0mm
07:59 80.2 °F /  26.8 °C 66.9 °F /  19.4 °C 29.8in /  1010.6hPa NNE 1.8mph /  2.9km/h 2.3mph /  3.7km/h 64% 0in /  0.0mm
08:04 80.2 °F /  26.8 °C 66.9 °F /  19.4 °C 29.8in /  1010.6hPa NNE 1.8mph /  2.9km/h 2.3mph /  3.7km/h 64% 0in /  0.0mm
08:09 80.2 °F /  26.8 °C 66.9 °F /  19.4 °C 29.8in /  1010.6hPa NNE 1.4mph /  2.3km/h   64% 0in /  0.0mm
08:14 80.4 °F /  26.9 °C 67.6 °F /  19.8 °C 29.8in /  1010.6hPa NNE 1.4mph /  2.3km/h   65% 0in /  0.0mm
08:19 80.4 °F /  26.9 °C 67.1 °F /  19.5 °C 29.8in /  1010.6hPa Calm     64% 0in /  0.0mm
08:24 80.6 °F /  27 °C 67.3 °F /  19.6 °C 29.8in /  1010.6hPa Calm   2.9mph /  4.7km/h 64% 0in /  0.0mm
08:29 80.8 °F /  27.1 °C 67.5 °F /  19.7 °C 29.8in /  1010.6hPa NNE 1.4mph /  2.3km/h 2.3mph /  3.7km/h 64% 0in /  0.0mm
08:34 81 °F /  27.2 °C 67.3 °F /  19.6 °C 29.8in /  1010.5hPa NNE 1.4mph /  2.3km/h 2.3mph /  3.7km/h 63% 0in /  0.0mm
08:39 81.1 °F /  27.3 °C 67.3 °F /  19.6 °C 29.8in /  1010.5hPa NNE 1.4mph /  2.3km/h 3.5mph /  5.6km/h 63% 0in /  0.0mm
08:44 81.3 °F /  27.4 °C 67.5 °F /  19.7 °C 29.8in /  1010.5hPa NNE 1.4mph /  2.3km/h 2.4mph /  3.9km/h 63% 0in /  0.0mm
08:49 81.5 °F /  27.5 °C 67.6 °F /  19.8 °C 29.8in /  1010.4hPa NNE 1.8mph /  2.9km/h 2.3mph /  3.7km/h 63% 0in /  0.0mm
08:54 81.9 °F /  27.7 °C 68 °F /  20 °C 29.8in /  1010.4hPa NNE 1.8mph /  2.9km/h   63% 0in /  0.0mm
08:59 82.2 °F /  27.9 °C 67.5 °F /  19.7 °C 29.8in /  1010.4hPa Calm     61% 0in /  0.0mm
09:04 82.8 °F /  28.2 °C 66.9 °F /  19.4 °C 29.8in /  1010.4hPa Calm   3.5mph /  5.6km/h 59% 0in /  0.0mm
09:09 83.5 °F /  28.6 °C 66.6 °F /  19.2 °C 29.8in /  1010.4hPa Sur 1.4mph /  2.3km/h 4.6mph /  7.4km/h 57% 0in /  0.0mm
09:14 83.7 °F /  28.7 °C 66.4 °F /  19.1 °C 29.8in /  1010.4hPa SO 1.4mph /  2.3km/h 2.9mph /  4.7km/h 56% 0in /  0.0mm
09:19 83.8 °F /  28.8 °C 66.6 °F /  19.2 °C 29.8in /  1010.7hPa SO 2.4mph /  3.9km/h 3.5mph /  5.6km/h 56% 0in /  0.0mm
09:24 84.2 °F /  29 °C 66.7 °F /  19.3 °C 29.8in /  1010.7hPa SE 2.4mph /  3.9km/h 4.6mph /  7.4km/h 56% 0in /  0.0mm
09:29 84.6 °F /  29.2 °C 67.1 °F /  19.5 °C 29.8in /  1010.7hPa ESE 1.8mph /  2.9km/h 2.4mph /  3.9km/h 56% 0in /  0.0mm
09:34 84.9 °F /  29.4 °C 66.9 °F /  19.4 °C 29.9in /  1010.8hPa SSO 1.8mph /  2.9km/h 2mph /  3.2km/h 55% 0in /  0.0mm
09:39 85.1 °F /  29.5 °C 66.6 °F /  19.2 °C 29.9in /  1010.8hPa OSO 1.8mph /  2.9km/h 3.1mph /  5km/h 54% 0in /  0.0mm
09:44 85.3 °F /  29.6 °C 67.3 °F /  19.6 °C 29.9in /  1010.8hPa OSO 1.8mph /  2.9km/h   55% 0in /  0.0mm
09:49 85.5 °F /  29.7 °C 66.4 °F /  19.1 °C 29.9in /  1010.8hPa NE 1.4mph /  2.3km/h 2.3mph /  3.7km/h 53% 0in /  0.0mm
09:54 85.6 °F /  29.8 °C 67.1 °F /  19.5 °C 29.9in /  1010.8hPa ENE 1.4mph /  2.3km/h 3.5mph /  5.6km/h 54% 0in /  0.0mm
09:59 85.8 °F /  29.9 °C 67.3 °F /  19.6 °C 29.9in /  1010.8hPa ENE 1.4mph /  2.3km/h 2mph /  3.2km/h 54% 0in /  0.0mm
10:04 86 °F /  30 °C 66.9 °F /  19.4 °C 29.8in /  1010.7hPa NO 1.4mph /  2.3km/h 3.5mph /  5.6km/h 53% 0in /  0.0mm
10:09 85.8 °F /  29.9 °C 66.7 °F /  19.3 °C 29.8in /  1010.7hPa NE 2mph /  3.2km/h 4.6mph /  7.4km/h 53% 0in /  0.0mm
10:14 85.8 °F /  29.9 °C 67.3 °F /  19.6 °C 29.8in /  1010.7hPa NNE 2mph /  3.2km/h 4.7mph /  7.6km/h 54% 0in /  0.0mm
10:19 85.6 °F /  29.8 °C 66 °F /  18.9 °C 29.8in /  1010.7hPa NE 2.9mph /  4.7km/h 4.6mph /  7.4km/h 52% 0in /  0.0mm
10:24 85.6 °F /  29.8 °C 67.1 °F /  19.5 °C 29.8in /  1010.7hPa NE 2.9mph /  4.7km/h 4mph /  6.4km/h 54% 0in /  0.0mm
10:29 85.8 °F /  29.9 °C 67.3 °F /  19.6 °C 29.8in /  1010.7hPa NE 2.4mph /  3.9km/h 4.3mph /  6.9km/h 54% 0in /  0.0mm
10:34 86.2 °F /  30.1 °C 66.9 °F /  19.4 °C 29.8in /  1010.6hPa North 2.4mph /  3.9km/h 4.7mph /  7.6km/h 53% 0in /  0.0mm
10:39 86.4 °F /  30.2 °C 67.3 °F /  19.6 °C 29.8in /  1010.6hPa NE 2.9mph /  4.7km/h 4.6mph /  7.4km/h 53% 0in /  0.0mm
10:44 86.5 °F /  30.3 °C 67.5 °F /  19.7 °C 29.8in /  1010.6hPa NE 2.9mph /  4.7km/h 4.6mph /  7.4km/h 53% 0in /  0.0mm
10:49 86.9 °F /  30.5 °C 66.6 °F /  19.2 °C 29.9in /  1010.8hPa NE 2.9mph /  4.7km/h 3.5mph /  5.6km/h 51% 0in /  0.0mm
10:54 87.3 °F /  30.7 °C 66.9 °F /  19.4 °C 29.9in /  1010.8hPa NE 2.9mph /  4.7km/h 6.9mph /  11.1km/h 51% 0in /  0.0mm
10:59 87.6 °F /  30.9 °C 67.3 °F /  19.6 °C 29.9in /  1010.8hPa NE 3.1mph /  5km/h 5.2mph /  8.4km/h 51% 0in /  0.0mm
11:04 88 °F /  31.1 °C 66.9 °F /  19.4 °C 29.8in /  1010.6hPa SE 3.1mph /  5km/h 5.8mph /  9.3km/h 50% 0in /  0.0mm
11:09 88.3 °F /  31.3 °C 66.7 °F /  19.3 °C 29.8in /  1010.6hPa NNE 4mph /  6.4km/h 5.8mph /  9.3km/h 49% 0in /  0.0mm
11:14 88.7 °F /  31.5 °C 66.6 °F /  19.2 °C 29.8in /  1010.6hPa NE 4mph /  6.4km/h 5.8mph /  9.3km/h 48% 0in /  0.0mm
11:19 89.1 °F /  31.7 °C 66.7 °F /  19.3 °C 29.8in /  1010.5hPa NE 4mph /  6.4km/h 4.6mph /  7.4km/h 48% 0in /  0.0mm
11:24 89.2 °F /  31.8 °C 66.4 °F /  19.1 °C 29.8in /  1010.5hPa North 4mph /  6.4km/h 5.8mph /  9.3km/h 47% 0in /  0.0mm
11:29 89.4 °F /  31.9 °C 65.8 °F /  18.8 °C 29.8in /  1010.5hPa NNE 4.3mph /  6.9km/h 9.2mph /  14.8km/h 46% 0in /  0.0mm
11:34 89.6 °F /  32 °C 64 °F /  17.8 °C 29.8in /  1010.2hPa NNE 4.3mph /  6.9km/h 8.1mph /  13km/h 43% 0in /  0.0mm
11:39 90.1 °F /  32.3 °C 64 °F /  17.8 °C 29.8in /  1010.2hPa NNE 6.2mph /  10km/h 9.2mph /  14.8km/h 42% 0in /  0.0mm
11:44 90.7 °F /  32.6 °C 64.4 °F /  18 °C 29.8in /  1010.2hPa North 6.2mph /  10km/h 7.6mph /  12.2km/h 42% 0in /  0.0mm
11:49 91.2 °F /  32.9 °C 63.5 °F /  17.5 °C 29.8in /  1010.0hPa NNE 5.2mph /  8.4km/h 8.1mph /  13km/h 40% 0in /  0.0mm
11:54 91.8 °F /  33.2 °C 63.3 °F /  17.4 °C 29.8in /  1010.0hPa North 5.2mph /  8.4km/h 8.1mph /  13km/h 39% 0in /  0.0mm
11:59 92.1 °F /  33.4 °C 63.7 °F /  17.6 °C 29.8in /  1010.0hPa NE 5.9mph /  9.5km/h 6.2mph /  10km/h 39% 0in /  0.0mm
12:04 92.5 °F /  33.6 °C 62.4 °F /  16.9 °C 29.8in /  1009.8hPa NE 5.9mph /  9.5km/h 6.9mph /  11.1km/h 37% 0in /  0.0mm
12:09 92.7 °F /  33.7 °C 62.6 °F /  17 °C 29.8in /  1009.8hPa NNE 5.2mph /  8.4km/h 7.4mph /  11.9km/h 37% 0in /  0.0mm
12:14 92.8 °F /  33.8 °C 62.8 °F /  17.1 °C 29.8in /  1009.8hPa NNE 5.2mph /  8.4km/h 9.2mph /  14.8km/h 37% 0in /  0.0mm
12:19 93.2 °F /  34 °C 63.1 °F /  17.3 °C 29.8in /  1009.8hPa North 5.2mph /  8.4km/h 8.1mph /  13km/h 37% 0in /  0.0mm
12:24 93.7 °F /  34.3 °C 63.5 °F /  17.5 °C 29.8in /  1009.8hPa NNE 5.2mph /  8.4km/h 8.1mph /  13km/h 37% 0in /  0.0mm
12:29 94.5 °F /  34.7 °C 64.2 °F /  17.9 °C 29.8in /  1009.8hPa NNE 5.2mph /  8.4km/h 8.1mph /  13km/h 37% 0in /  0.0mm
12:34 94.8 °F /  34.9 °C 63 °F /  17.2 °C 29.8in /  1009.8hPa North 5.2mph /  8.4km/h 4.6mph /  7.4km/h 35% 0in /  0.0mm
12:39 95.4 °F /  35.2 °C 62.4 °F /  16.9 °C 29.8in /  1009.8hPa NE 5.4mph /  8.7km/h 8.1mph /  13km/h 34% 0in /  0.0mm
12:44 95.5 °F /  35.3 °C 61.9 °F /  16.6 °C 29.8in /  1009.8hPa NE 5.4mph /  8.7km/h 7.6mph /  12.2km/h 33% 0in /  0.0mm
12:49 95.7 °F /  35.4 °C 61.2 °F /  16.2 °C 29.8in /  1009.4hPa NE 5.2mph /  8.4km/h 8.1mph /  13km/h 32% 0in /  0.0mm
12:54 95.9 °F /  35.5 °C 60.4 °F /  15.8 °C 29.8in /  1009.4hPa NNE 5.2mph /  8.4km/h 8.1mph /  13km/h 31% 0in /  0.0mm
12:59 96.4 °F /  35.8 °C 61 °F /  16.1 °C 29.8in /  1009.4hPa North 3.1mph /  5km/h 7.6mph /  12.2km/h 31% 0in /  0.0mm
13:04 96.6 °F /  35.9 °C 61 °F /  16.1 °C 29.8in /  1009.2hPa North 3.1mph /  5km/h 6.9mph /  11.1km/h 31% 0in /  0.0mm
13:09 97.3 °F /  36.3 °C 61.5 °F /  16.4 °C 29.8in /  1009.2hPa NNO 3.6mph /  5.8km/h 5.4mph /  8.7km/h 31% 0in /  0.0mm
13:14 97.9 °F /  36.6 °C 61.2 °F /  16.2 °C 29.8in /  1009.2hPa NNE 3.6mph /  5.8km/h 6.9mph /  11.1km/h 30% 0in /  0.0mm
13:19 98.1 °F /  36.7 °C 61.3 °F /  16.3 °C 29.8in /  1009.1hPa NNO 4.7mph /  7.6km/h 6.9mph /  11.1km/h 30% 0in /  0.0mm
13:24 98.2 °F /  36.8 °C 59.5 °F /  15.3 °C 29.8in /  1009.1hPa ONO 4.7mph /  7.6km/h 10.4mph /  16.7km/h 28% 0in /  0.0mm
13:29 98.2 °F /  36.8 °C 59.5 °F /  15.3 °C 29.8in /  1009.1hPa NE 5.4mph /  8.7km/h 6.2mph /  10km/h 28% 0in /  0.0mm
13:34 98.4 °F /  36.9 °C 60.6 °F /  15.9 °C 29.8in /  1009.1hPa ESE 5.4mph /  8.7km/h 4.6mph /  7.4km/h 29% 0in /  0.0mm
13:39 99 °F /  37.2 °C 57 °F /  13.9 °C 29.8in /  1009.1hPa SSE 5.2mph /  8.4km/h 12.7mph /  20.4km/h 25% 0in /  0.0mm
13:44 99.3 °F /  37.4 °C 57.4 °F /  14.1 °C 29.8in /  1009.1hPa Sur 5.2mph /  8.4km/h 17.3mph /  27.8km/h 25% 0in /  0.0mm
13:49 99.7 °F /  37.6 °C 56.5 °F /  13.6 °C 29.8in /  1009.0hPa SSO 11.8mph /  19km/h 17.3mph /  27.8km/h 24% 0in /  0.0mm
13:54 99.7 °F /  37.6 °C 56.5 °F /  13.6 °C 29.8in /  1009.0hPa SSE 11.8mph /  19km/h 16.1mph /  25.9km/h 24% 0in /  0.0mm
13:59 99.5 °F /  37.5 °C 56.3 °F /  13.5 °C 29.8in /  1009.0hPa SSE 10mph /  16.1km/h 17.3mph /  27.8km/h 24% 0in /  0.0mm
14:04 99.7 °F /  37.6 °C 56.5 °F /  13.6 °C 29.8in /  1008.9hPa SSE 10mph /  16.1km/h 13.8mph /  22.2km/h 24% 0in /  0.0mm
14:09 99.9 °F /  37.7 °C 56.7 °F /  13.7 °C 29.8in /  1008.9hPa Sur 9.2mph /  14.8km/h 13.8mph /  22.2km/h 24% 0in /  0.0mm
14:14 100 °F /  37.8 °C 55.6 °F /  13.1 °C 29.8in /  1008.9hPa Sur 9.2mph /  14.8km/h 16.1mph /  25.9km/h 23% 0in /  0.0mm
14:19 100.2 °F /  37.9 °C 55.8 °F /  13.2 °C 29.8in /  1008.6hPa SE 10mph /  16.1km/h 13.8mph /  22.2km/h 23% 0in /  0.0mm
14:24 100.4 °F /  38 °C 55.9 °F /  13.3 °C 29.8in /  1008.6hPa SSO 10mph /  16.1km/h 20.7mph /  33.3km/h 23% 0in /  0.0mm
14:29 100.4 °F /  38 °C 55.9 °F /  13.3 °C 29.8in /  1008.6hPa Sur 11.4mph /  18.3km/h 15.6mph /  25.1km/h 23% 0in /  0.0mm
14:34 100.2 °F /  37.9 °C 55.8 °F /  13.2 °C 29.8in /  1008.4hPa Sur 11.4mph /  18.3km/h 18.1mph /  29.1km/h 23% 0in /  0.0mm
14:39 100.2 °F /  37.9 °C 55.8 °F /  13.2 °C 29.8in /  1008.4hPa Sur 13.7mph /  22km/h 18.4mph /  29.6km/h 23% 0in /  0.0mm
14:44 100.6 °F /  38.1 °C 55.9 °F /  13.3 °C 29.8in /  1008.4hPa SSO 13.7mph /  22km/h 16.1mph /  25.9km/h 23% 0in /  0.0mm
14:49 100.9 °F /  38.3 °C 56.3 °F /  13.5 °C 29.8in /  1008.1hPa Sur 8.7mph /  14km/h 13.8mph /  22.2km/h 23% 0in /  0.0mm
14:54 101.5 °F /  38.6 °C 55.6 °F /  13.1 °C 29.8in /  1008.1hPa SO 8.7mph /  14km/h 15.9mph /  25.6km/h 22% 0in /  0.0mm
14:59 101.8 °F /  38.8 °C 55.9 °F /  13.3 °C 29.8in /  1008.1hPa Sur 9.2mph /  14.8km/h 13.7mph /  22km/h 22% 0in /  0.0mm
15:04 102.2 °F /  39 °C 54.9 °F /  12.7 °C 29.8in /  1008.0hPa SO 9.2mph /  14.8km/h 13.8mph /  22.2km/h 21% 0in /  0.0mm
15:09 102 °F /  38.9 °C 54.7 °F /  12.6 °C 29.8in /  1008.0hPa SSE 9.2mph /  14.8km/h 19.7mph /  31.7km/h 21% 0in /  0.0mm
15:14 101.8 °F /  38.8 °C 55.9 °F /  13.3 °C 29.8in /  1008.0hPa SSE 9.2mph /  14.8km/h 18.4mph /  29.6km/h 22% 0in /  0.0mm
15:19 101.7 °F /  38.7 °C 55.8 °F /  13.2 °C 29.8in /  1007.9hPa Sur 11.2mph /  18km/h 11.2mph /  18km/h 22% 0in /  0.0mm
15:24 101.5 °F /  38.6 °C 55.6 °F /  13.1 °C 29.8in /  1007.9hPa Sur 11.2mph /  18km/h 13.8mph /  22.2km/h 22% 0in /  0.0mm
15:29 101.3 °F /  38.5 °C 55.4 °F /  13 °C 29.8in /  1007.9hPa Sur 8.7mph /  14km/h 13.8mph /  22.2km/h 22% 0in /  0.0mm
15:34 101.1 °F /  38.4 °C 55.2 °F /  12.9 °C 29.8in /  1007.9hPa Sur 8.7mph /  14km/h 15mph /  24.1km/h 22% 0in /  0.0mm
15:39 101.1 °F /  38.4 °C 55.2 °F /  12.9 °C 29.8in /  1007.9hPa SSO 9.7mph /  15.6km/h 13.5mph /  21.7km/h 22% 0in /  0.0mm
15:44 101.3 °F /  38.5 °C 55.4 °F /  13 °C 29.8in /  1007.9hPa Sur 9.7mph /  15.6km/h 17.3mph /  27.8km/h 22% 0in /  0.0mm
15:49 101.3 °F /  38.5 °C 55.4 °F /  13 °C 29.8in /  1007.9hPa SE 9.7mph /  15.6km/h 19.6mph /  31.5km/h 22% 0in /  0.0mm
15:54 101.1 °F /  38.4 °C 55.2 °F /  12.9 °C 29.8in /  1007.9hPa SSE 9.7mph /  15.6km/h 16.1mph /  25.9km/h 22% 0in /  0.0mm
15:59 100.9 °F /  38.3 °C 55 °F /  12.8 °C 29.8in /  1007.9hPa SSO 11.2mph /  18km/h 17.5mph /  28.2km/h 22% 0in /  0.0mm
16:04 101.1 °F /  38.4 °C 56.5 °F /  13.6 °C 29.8in /  1007.9hPa SSO 11.2mph /  18km/h 16.1mph /  25.9km/h 23% 0in /  0.0mm
16:09 101.1 °F /  38.4 °C 55.2 °F /  12.9 °C 29.8in /  1007.9hPa Sur 9.7mph /  15.6km/h 12.3mph /  19.8km/h 22% 0in /  0.0mm
16:14 101.1 °F /  38.4 °C 55.2 °F /  12.9 °C 29.8in /  1007.9hPa SSO 9.7mph /  15.6km/h 19.6mph /  31.5km/h 22% 0in /  0.0mm
16:19 100.9 °F /  38.3 °C 55 °F /  12.8 °C 29.8in /  1007.8hPa Sur 10.2mph /  16.4km/h 9.2mph /  14.8km/h 22% 0in /  0.0mm
16:24 100.8 °F /  38.2 °C 55 °F /  12.8 °C 29.8in /  1007.8hPa SSO 10.2mph /  16.4km/h 11.5mph /  18.5km/h 22% 0in /  0.0mm
16:29 100.8 °F /  38.2 °C 55 °F /  12.8 °C 29.8in /  1007.8hPa Sur 8.7mph /  14km/h 16.1mph /  25.9km/h 22% 0in /  0.0mm
16:34 100.6 °F /  38.1 °C 54.9 °F /  12.7 °C 29.8in /  1007.7hPa SSO 8.7mph /  14km/h 15mph /  24.1km/h 22% 0in /  0.0mm
16:39 100.6 °F /  38.1 °C 54.9 °F /  12.7 °C 29.8in /  1007.7hPa SE 11.4mph /  18.3km/h 18.4mph /  29.6km/h 22% 0in /  0.0mm
16:44 100.2 °F /  37.9 °C 55.8 °F /  13.2 °C 29.8in /  1007.7hPa SSE 11.4mph /  18.3km/h 19.6mph /  31.5km/h 23% 0in /  0.0mm
16:49 100.2 °F /  37.9 °C 54.5 °F /  12.5 °C 29.8in /  1007.4hPa Sur 13.5mph /  21.7km/h 25.3mph /  40.7km/h 22% 0in /  0.0mm
16:54 99.9 °F /  37.7 °C 55.4 °F /  13 °C 29.8in /  1007.4hPa SE 13.5mph /  21.7km/h 25.3mph /  40.7km/h 23% 0in /  0.0mm
16:59 100 °F /  37.8 °C 55.6 °F /  13.1 °C 29.8in /  1007.4hPa Sur 16.3mph /  26.2km/h 27.6mph /  44.4km/h 23% 0in /  0.0mm
17:04 100.2 °F /  37.9 °C 54.5 °F /  12.5 °C 29.7in /  1007.1hPa Sur 16.3mph /  26.2km/h 29.9mph /  48.1km/h 22% 0in /  0.0mm
17:09 100 °F /  37.8 °C 55.6 °F /  13.1 °C 29.7in /  1007.1hPa SSE 15.2mph /  24.5km/h 19.6mph /  31.5km/h 23% 0in /  0.0mm
17:14 100 °F /  37.8 °C 55.6 °F /  13.1 °C 29.7in /  1007.1hPa SO 15.2mph /  24.5km/h 20.7mph /  33.3km/h 23% 0in /  0.0mm
17:19 100 °F /  37.8 °C 55.6 °F /  13.1 °C 29.7in /  1006.9hPa Sur 12.3mph /  19.8km/h 17.3mph /  27.8km/h 23% 0in /  0.0mm
17:24 100 °F /  37.8 °C 55.6 °F /  13.1 °C 29.7in /  1006.9hPa Sur 12.3mph /  19.8km/h 23mph /  37km/h 23% 0in /  0.0mm
17:29 100 °F /  37.8 °C 55.6 °F /  13.1 °C 29.7in /  1006.9hPa SSO 15.6mph /  25.1km/h 23mph /  37km/h 23% 0in /  0.0mm
17:34 100 °F /  37.8 °C 55.6 °F /  13.1 °C 29.7in /  1006.7hPa Sur 15.6mph /  25.1km/h 24.6mph /  39.6km/h 23% 0in /  0.0mm
17:39 99.9 °F /  37.7 °C 55.4 °F /  13 °C 29.7in /  1006.7hPa SSE 16.3mph /  26.2km/h 24.2mph /  38.9km/h 23% 0in /  0.0mm
17:44 99.9 °F /  37.7 °C 55.4 °F /  13 °C 29.7in /  1006.7hPa SO 16.3mph /  26.2km/h 15.6mph /  25.1km/h 23% 0in /  0.0mm
17:49 99.9 °F /  37.7 °C 55.4 °F /  13 °C 29.7in /  1006.5hPa SSE 14mph /  22.5km/h 15mph /  24.1km/h 23% 0in /  0.0mm
17:54 100 °F /  37.8 °C 55.6 °F /  13.1 °C 29.7in /  1006.5hPa Sur 14mph /  22.5km/h 20.7mph /  33.3km/h 23% 0in /  0.0mm
17:59 100.2 °F /  37.9 °C 55.8 °F /  13.2 °C 29.7in /  1006.5hPa SE 11.8mph /  19km/h 10.4mph /  16.7km/h 23% 0in /  0.0mm
18:04 100.8 °F /  38.2 °C 56.1 °F /  13.4 °C 29.7in /  1006.1hPa SSE 11.8mph /  19km/h 13.8mph /  22.2km/h 23% 0in /  0.0mm
18:09 100.4 °F /  38 °C 54.7 °F /  12.6 °C 29.7in /  1006.1hPa SSE 10mph /  16.1km/h 16.1mph /  25.9km/h 22% 0in /  0.0mm
18:14 100.4 °F /  38 °C 55.9 °F /  13.3 °C 29.7in /  1006.1hPa SE 10mph /  16.1km/h 12.7mph /  20.4km/h 23% 0in /  0.0mm
18:19 100.2 °F /  37.9 °C 55.8 °F /  13.2 °C 29.7in /  1005.9hPa SE 8.7mph /  14km/h 13.8mph /  22.2km/h 23% 0in /  0.0mm
18:24 99.9 °F /  37.7 °C 55.4 °F /  13 °C 29.7in /  1005.9hPa SSE 8.7mph /  14km/h 17.3mph /  27.8km/h 23% 0in /  0.0mm
18:29 99.7 °F /  37.6 °C 55.2 °F /  12.9 °C 29.7in /  1005.9hPa Sur 9.7mph /  15.6km/h 13.7mph /  22km/h 23% 0in /  0.0mm
18:34 99.3 °F /  37.4 °C 56.1 °F /  13.4 °C 29.7in /  1006.1hPa SE 9.7mph /  15.6km/h 9.2mph /  14.8km/h 24% 0in /  0.0mm
18:39 99.1 °F /  37.3 °C 55.9 °F /  13.3 °C 29.7in /  1006.1hPa SSE 9.7mph /  15.6km/h 18.4mph /  29.6km/h 24% 0in /  0.0mm
18:44 99 °F /  37.2 °C 55.9 °F /  13.3 °C 29.7in /  1006.1hPa SSO 9.7mph /  15.6km/h 15mph /  24.1km/h 24% 0in /  0.0mm
18:49 98.8 °F /  37.1 °C 55.8 °F /  13.2 °C 29.7in /  1005.8hPa SE 9.2mph /  14.8km/h 12.7mph /  20.4km/h 24% 0in /  0.0mm
18:54 98.6 °F /  37 °C 55.6 °F /  13.1 °C 29.7in /  1005.8hPa Sur 9.2mph /  14.8km/h 8.1mph /  13km/h 24% 0in /  0.0mm
18:59 98.4 °F /  36.9 °C 56.5 °F /  13.6 °C 29.7in /  1005.8hPa SE 6.2mph /  10km/h 11.5mph /  18.5km/h 25% 0in /  0.0mm
19:04 98.4 °F /  36.9 °C 56.5 °F /  13.6 °C 29.7in /  1005.8hPa Este 6.2mph /  10km/h 6.9mph /  11.1km/h 25% 0in /  0.0mm
19:09 98.2 °F /  36.8 °C 58.5 °F /  14.7 °C 29.7in /  1005.8hPa ESE 6.4mph /  10.3km/h 10.4mph /  16.7km/h 27% 0in /  0.0mm
19:14 97.9 °F /  36.6 °C 58.3 °F /  14.6 °C 29.7in /  1005.8hPa Este 6.4mph /  10.3km/h 12.7mph /  20.4km/h 27% 0in /  0.0mm
19:19 97.5 °F /  36.4 °C 57.9 °F /  14.4 °C 29.7in /  1006.0hPa SE 7.6mph /  12.2km/h 8.1mph /  13km/h 27% 0in /  0.0mm
19:24 97.3 °F /  36.3 °C 58.8 °F /  14.9 °C 29.7in /  1006.0hPa ESE 7.6mph /  12.2km/h 8.5mph /  13.7km/h 28% 0in /  0.0mm
19:29 97.2 °F /  36.2 °C 58.6 °F /  14.8 °C 29.7in /  1006.0hPa Este 4.7mph /  7.6km/h 8.1mph /  13km/h 28% 0in /  0.0mm
19:34 96.6 °F /  35.9 °C 59.2 °F /  15.1 °C 29.7in /  1005.9hPa Este 4.7mph /  7.6km/h 9.2mph /  14.8km/h 29% 0in /  0.0mm
19:39 96.3 °F /  35.7 °C 58.8 °F /  14.9 °C 29.7in /  1005.9hPa ESE 6.2mph /  10km/h 10.4mph /  16.7km/h 29% 0in /  0.0mm
19:44 95.7 °F /  35.4 °C 58.5 °F /  14.7 °C 29.7in /  1005.9hPa ESE 6.2mph /  10km/h 10mph /  16.1km/h 29% 0in /  0.0mm
19:49 95.5 °F /  35.3 °C 59.2 °F /  15.1 °C 29.7in /  1006.2hPa ESE 6.9mph /  11.1km/h 9.2mph /  14.8km/h 30% 0in /  0.0mm
19:54 95.4 °F /  35.2 °C 59 °F /  15 °C 29.7in /  1006.2hPa SE 6.9mph /  11.1km/h 15.9mph /  25.6km/h 30% 0in /  0.0mm
19:59 95 °F /  35 °C 58.6 °F /  14.8 °C 29.7in /  1006.2hPa SSE 10.2mph /  16.4km/h 13.8mph /  22.2km/h 30% 0in /  0.0mm
20:04 95 °F /  35 °C 58.6 °F /  14.8 °C 29.7in /  1006.6hPa Sur 10.2mph /  16.4km/h 10.2mph /  16.4km/h 30% 0in /  0.0mm
20:09 94.8 °F /  34.9 °C 58.6 °F /  14.8 °C 29.7in /  1006.6hPa SSE 9.2mph /  14.8km/h 16.1mph /  25.9km/h 30% 0in /  0.0mm
20:14 94.3 °F /  34.6 °C 59.9 °F /  15.5 °C 29.7in /  1006.6hPa Sur 9.2mph /  14.8km/h 25.3mph /  40.7km/h 32% 0in /  0.0mm
20:19 92.8 °F /  33.8 °C 60.3 °F /  15.7 °C 29.7in /  1007.0hPa SSE 11.2mph /  18km/h 22.5mph /  36.2km/h 34% 0in /  0.0mm
20:24 91.8 °F /  33.2 °C 61 °F /  16.1 °C 29.7in /  1007.0hPa ESE 11.2mph /  18km/h 13.8mph /  22.2km/h 36% 0in /  0.0mm
20:29 91 °F /  32.8 °C 60.4 °F /  15.8 °C 29.7in /  1007.0hPa SE 11.4mph /  18.3km/h 12.7mph /  20.4km/h 36% 0in /  0.0mm
20:34 91 °F /  32.8 °C 61.2 °F /  16.2 °C 29.7in /  1006.7hPa NE 11.4mph /  18.3km/h 3.5mph /  5.6km/h 37% 0in /  0.0mm
20:39 90.9 °F /  32.7 °C 61 °F /  16.1 °C 29.7in /  1006.7hPa NO 4.3mph /  6.9km/h 6.9mph /  11.1km/h 37% 0in /  0.0mm
20:44 90.7 °F /  32.6 °C 61.5 °F /  16.4 °C 29.7in /  1006.7hPa NNE 4.3mph /  6.9km/h 6.9mph /  11.1km/h 38% 0in /  0.0mm
20:49 90.1 °F /  32.3 °C 61.2 °F /  16.2 °C 29.7in /  1006.8hPa NE 5.2mph /  8.4km/h 10.4mph /  16.7km/h 38% 0in /  0.0mm
20:54 90 °F /  32.2 °C 61.7 °F /  16.5 °C 29.7in /  1006.8hPa NE 5.2mph /  8.4km/h 6.9mph /  11.1km/h 39% 0in /  0.0mm
20:59 90 °F /  32.2 °C 61 °F /  16.1 °C 29.7in /  1006.8hPa ENE 4mph /  6.4km/h 3.5mph /  5.6km/h 38% 0in /  0.0mm
21:04 90 °F /  32.2 °C 61.7 °F /  16.5 °C 29.7in /  1006.7hPa ENE 4mph /  6.4km/h   39% 0in /  0.0mm
21:09 90 °F /  32.2 °C 61.7 °F /  16.5 °C 29.7in /  1006.7hPa Calm   1.8mph /  2.9km/h 39% 0in /  0.0mm
21:14 90 °F /  32.2 °C 61 °F /  16.1 °C 29.7in /  1006.7hPa Calm   4.6mph /  7.4km/h 38% 0in /  0.0mm
21:19 89.8 °F /  32.1 °C 61.5 °F /  16.4 °C 29.7in /  1006.5hPa NO 2mph /  3.2km/h 4.6mph /  7.4km/h 39% 0in /  0.0mm
21:24 89.4 °F /  31.9 °C 61.2 °F /  16.2 °C 29.7in /  1006.5hPa NNE 2mph /  3.2km/h 5.8mph /  9.3km/h 39% 0in /  0.0mm
21:29 89.2 °F /  31.8 °C 61.9 °F /  16.6 °C 29.7in /  1006.5hPa NNO 3.6mph /  5.8km/h 3.5mph /  5.6km/h 40% 0in /  0.0mm
21:34 88.9 °F /  31.6 °C 61.3 °F /  16.3 °C 29.7in /  1006.6hPa NE 3.6mph /  5.8km/h 5.8mph /  9.3km/h 40% 0in /  0.0mm
21:39 88.5 °F /  31.4 °C 61.9 °F /  16.6 °C 29.7in /  1006.6hPa NE 3.6mph /  5.8km/h 4.6mph /  7.4km/h 41% 0in /  0.0mm
21:44 88.5 °F /  31.4 °C 61.9 °F /  16.6 °C 29.7in /  1006.6hPa North 3.6mph /  5.8km/h 3.5mph /  5.6km/h 41% 0in /  0.0mm
21:49 88.3 °F /  31.3 °C 61.7 °F /  16.5 °C 29.7in /  1006.9hPa NNO 2.4mph /  3.9km/h 6.9mph /  11.1km/h 41% 0in /  0.0mm
21:54 88 °F /  31.1 °C 62.1 °F /  16.7 °C 29.7in /  1006.9hPa ENE 2.4mph /  3.9km/h 5.8mph /  9.3km/h 42% 0in /  0.0mm
21:59 87.4 °F /  30.8 °C 61.5 °F /  16.4 °C 29.7in /  1006.9hPa NNE 3.6mph /  5.8km/h 4.6mph /  7.4km/h 42% 0in /  0.0mm
22:04 87.3 °F /  30.7 °C 61.3 °F /  16.3 °C 29.7in /  1007.2hPa NNE 3.6mph /  5.8km/h 4.6mph /  7.4km/h 42% 0in /  0.0mm
22:09 87.1 °F /  30.6 °C 61.9 °F /  16.6 °C 29.7in /  1007.2hPa ESE 4mph /  6.4km/h 4.6mph /  7.4km/h 43% 0in /  0.0mm
22:14 86.9 °F /  30.5 °C 61.7 °F /  16.5 °C 29.7in /  1007.2hPa ESE 4mph /  6.4km/h 2.3mph /  3.7km/h 43% 0in /  0.0mm
22:19 86.7 °F /  30.4 °C 61.5 °F /  16.4 °C 29.8in /  1008.3hPa ENE 2.4mph /  3.9km/h 2.3mph /  3.7km/h 43% 0in /  0.0mm
22:24 86.7 °F /  30.4 °C 61.5 °F /  16.4 °C 29.8in /  1008.3hPa NE 2.4mph /  3.9km/h 4.6mph /  7.4km/h 43% 0in /  0.0mm
22:29 86.5 °F /  30.3 °C 62.1 °F /  16.7 °C 29.8in /  1008.3hPa NE 2.4mph /  3.9km/h 3.5mph /  5.6km/h 44% 0in /  0.0mm
22:34 86.4 °F /  30.2 °C 61.9 °F /  16.6 °C 29.8in /  1008.8hPa ENE 2.4mph /  3.9km/h 5.9mph /  9.5km/h 44% 0in /  0.0mm
22:39 86.2 °F /  30.1 °C 62.2 °F /  16.8 °C 29.8in /  1008.8hPa NE 4.3mph /  6.9km/h 8.1mph /  13km/h 45% 0in /  0.0mm
22:44 85.8 °F /  29.9 °C 62.1 °F /  16.7 °C 29.8in /  1008.8hPa ENE 4.3mph /  6.9km/h 6.9mph /  11.1km/h 45% 0in /  0.0mm
22:49 85.8 °F /  29.9 °C 62.6 °F /  17 °C 29.8in /  1008.7hPa NNE 4.3mph /  6.9km/h 8.1mph /  13km/h 46% 0in /  0.0mm
22:54 85.5 °F /  29.7 °C 62.2 °F /  16.8 °C 29.8in /  1008.7hPa NNO 4.3mph /  6.9km/h 5.8mph /  9.3km/h 46% 0in /  0.0mm
22:59 85.3 °F /  29.6 °C 62.8 °F /  17.1 °C 29.8in /  1008.7hPa Este 4.3mph /  6.9km/h 4.6mph /  7.4km/h 47% 0in /  0.0mm
23:04 84.9 °F /  29.4 °C 63 °F /  17.2 °C 29.8in /  1009.2hPa NNO 4.3mph /  6.9km/h 9.2mph /  14.8km/h 48% 0in /  0.0mm
23:09 84.7 °F /  29.3 °C 64.6 °F /  18.1 °C 29.8in /  1009.2hPa NNE 5.2mph /  8.4km/h 9.2mph /  14.8km/h 51% 0in /  0.0mm
23:14 84.4 °F /  29.1 °C 65.8 °F /  18.8 °C 29.8in /  1009.2hPa NE 5.2mph /  8.4km/h 10.4mph /  16.7km/h 54% 0in /  0.0mm
23:19 83.8 °F /  28.8 °C 65.8 °F /  18.8 °C 29.8in /  1009.5hPa North 6.9mph /  11.1km/h 11.5mph /  18.5km/h 55% 0in /  0.0mm
23:24 83.7 °F /  28.7 °C 66.4 °F /  19.1 °C 29.8in /  1009.5hPa NE 6.9mph /  11.1km/h 12.7mph /  20.4km/h 56% 0in /  0.0mm
23:29 83.5 °F /  28.6 °C 66 °F /  18.9 °C 29.8in /  1009.5hPa NE 8.1mph /  13km/h 10.4mph /  16.7km/h 56% 0in /  0.0mm
23:34 83.5 °F /  28.6 °C 66 °F /  18.9 °C 29.8in /  1009.3hPa NNE 8.1mph /  13km/h 13.8mph /  22.2km/h 56% 0in /  0.0mm
23:39 83.7 °F /  28.7 °C 65.8 °F /  18.8 °C 29.8in /  1009.3hPa NE 10.2mph /  16.4km/h 17.3mph /  27.8km/h 55% 0in /  0.0mm
23:44 83.8 °F /  28.8 °C 64.2 °F /  17.9 °C 29.8in /  1009.3hPa Este 10.2mph /  16.4km/h 9.2mph /  14.8km/h 52% 0in /  0.0mm
23:49 84 °F /  28.9 °C 63.9 °F /  17.7 °C 29.8in /  1009.2hPa NO 5.9mph /  9.5km/h 5.8mph /  9.3km/h 51% 0in /  0.0mm
23:54 84.2 °F /  29 °C 63.5 °F /  17.5 °C 29.8in /  1009.2hPa Este 5.9mph /  9.5km/h 8.1mph /  13km/h 50% 0in /  0.0mm
23:59 84.4 °F /  29.1 °C 62.4 °F /  16.9 °C 29.8in /  1009.2hPa NE 4.7mph /  7.6km/h 9.2mph /  14.8km/h 48% 0in /  0.0mm
Murcia-Puente Tocinos, España
Compliments of Weather Underground - 3 mb

La estación de MeteoMurcia.com, publica sus datos en los siguientes proyectos:

Weather Underground PWS IMURCIAP2 Meteoclimatic www.awekas.at

W3Counter
Web Analytics